Time,TemperatureF,DewpointF,PressureIn,WindDirection,WindDirectionDegrees,WindSpeedMPH,WindSpeedGustMPH,Humidity,HourlyPrecipIn,Conditions,Clouds,dailyrainin,SoftwareType,DateUTC
2013-03-13 00:01:00,29.1,18.8,30.34,North,0,0.0,0.0,65,0.00,,CLR,0.00,VWS V14.01,2013-03-13 05:01:00,
2013-03-13 00:10:00,28.9,18.6,30.34,ENE,68,0.7,0.7,65,0.00,,CLR,0.00,VWS V14.01,2013-03-13 05:10:00,
2013-03-13 00:15:00,28.9,19.0,30.34,NNW,338,0.4,1.8,66,0.00,,CLR,0.00,VWS V14.01,2013-03-13 05:15:00,
2013-03-13 00:20:00,28.7,18.8,30.34,North,0,0.0,1.8,66,0.00,,CLR,0.00,VWS V14.01,2013-03-13 05:20:00,
2013-03-13 00:25:00,28.7,18.8,30.35,NNE,22,0.0,0.9,66,0.00,,CLR,0.00,VWS V14.01,2013-03-13 05:25:00,
2013-03-13 00:30:00,28.6,18.7,30.35,NW,315,0.2,1.1,66,0.00,,CLR,0.00,VWS V14.01,2013-03-13 05:30:00,
2013-03-13 00:35:00,28.6,18.7,30.35,NNE,22,0.0,0.4,66,0.00,,CLR,0.00,VWS V14.01,2013-03-13 05:35:00,
2013-03-13 00:40:00,28.4,18.5,30.35,NE,45,0.4,1.3,66,0.00,,CLR,0.00,VWS V14.01,2013-03-13 05:40:00,
2013-03-13 00:50:00,28.2,18.3,30.35,NNW,338,0.9,1.1,66,0.00,,CLR,0.00,VWS V14.01,2013-03-13 05:50:00,
2013-03-13 00:55:00,28.2,18.3,30.35,ENE,68,1.3,1.3,66,0.00,,CLR,0.00,VWS V14.01,2013-03-13 05:55:00,
2013-03-13 01:01:00,28.0,18.1,30.35,NE,45,0.0,1.1,66,0.00,,CLR,0.00,VWS V14.01,2013-03-13 06:01:00,
2013-03-13 01:10:00,27.8,17.9,30.35,North,0,0.4,0.4,66,0.00,,CLR,0.00,VWS V14.01,2013-03-13 06:10:00,
2013-03-13 01:15:00,27.8,17.9,30.35,NW,315,0.4,0.4,66,0.00,,CLR,0.00,VWS V14.01,2013-03-13 06:15:00,
2013-03-13 01:20:00,27.7,17.8,30.35,NNW,338,0.0,0.4,66,0.00,,CLR,0.00,VWS V14.01,2013-03-13 06:20:00,
2013-03-13 01:25:00,27.5,17.6,30.35,North,0,0.0,0.7,66,0.00,,CLR,0.00,VWS V14.01,2013-03-13 06:25:00,
2013-03-13 01:30:00,27.5,17.6,30.35,NNE,22,0.0,1.6,66,0.00,,CLR,0.00,VWS V14.01,2013-03-13 06:30:00,
2013-03-13 01:35:00,27.5,17.6,30.35,NE,45,0.4,0.4,66,0.00,,CLR,0.00,VWS V14.01,2013-03-13 06:35:00,
2013-03-13 01:40:00,27.3,17.5,30.35,North,0,0.4,0.4,66,0.00,,CLR,0.00,VWS V14.01,2013-03-13 06:40:00,
2013-03-13 01:45:00,27.1,17.3,30.35,NE,45,0.4,0.7,66,0.00,,CLR,0.00,VWS V14.01,2013-03-13 06:45:00,
2013-03-13 01:50:00,27.1,17.3,30.35,West,270,0.4,0.4,66,0.00,,CLR,0.00,VWS V14.01,2013-03-13 06:50:00,
2013-03-13 01:55:00,26.9,17.1,30.35,North,0,0.0,0.4,66,0.00,,CLR,0.00,VWS V14.01,2013-03-13 06:55:00,
2013-03-13 02:01:00,26.9,17.1,30.36,North,0,0.0,0.0,66,0.00,,CLR,0.00,VWS V14.01,2013-03-13 07:01:00,
2013-03-13 02:10:00,26.8,17.3,30.35,NNW,338,0.2,0.4,67,0.00,,CLR,0.00,VWS V14.01,2013-03-13 07:10:00,
2013-03-13 02:15:00,26.6,17.1,30.35,NW,315,0.7,1.1,67,0.00,,CLR,0.00,VWS V14.01,2013-03-13 07:15:00,
2013-03-13 02:20:00,26.4,16.9,30.35,NNW,338,0.0,0.7,67,0.00,,CLR,0.00,VWS V14.01,2013-03-13 07:20:00,
2013-03-13 02:25:00,26.2,17.1,30.35,NNW,338,0.0,0.4,68,0.00,,CLR,0.00,VWS V14.01,2013-03-13 07:25:00,
2013-03-13 02:30:00,26.0,16.9,30.36,North,0,0.0,0.4,68,0.00,,CLR,0.00,VWS V14.01,2013-03-13 07:30:00,
2013-03-13 02:35:00,26.0,16.9,30.36,NW,315,0.4,0.7,68,0.00,,CLR,0.00,VWS V14.01,2013-03-13 07:35:00,
2013-03-13 02:40:00,26.0,17.2,30.36,NW,315,0.4,1.1,69,0.00,,CLR,0.00,VWS V14.01,2013-03-13 07:40:00,
2013-03-13 02:45:00,25.9,17.1,30.36,WSW,248,0.4,0.9,69,0.00,,CLR,0.00,VWS V14.01,2013-03-13 07:45:00,
2013-03-13 02:50:00,25.7,17.0,30.36,NW,315,1.1,1.1,69,0.00,,CLR,0.00,VWS V14.01,2013-03-13 07:50:00,
2013-03-13 02:55:00,25.7,17.3,30.36,NW,315,0.4,1.6,70,0.00,,CLR,0.00,VWS V14.01,2013-03-13 07:55:00,
2013-03-13 03:02:00,25.5,17.1,30.36,NNW,338,0.0,0.7,70,0.00,,CLR,0.00,VWS V14.01,2013-03-13 08:02:00,
2013-03-13 03:10:00,25.3,16.9,30.36,NNW,338,0.0,0.4,70,0.00,,CLR,0.00,VWS V14.01,2013-03-13 08:10:00,
2013-03-13 03:15:00,25.1,16.7,30.36,NW,315,0.4,0.7,70,0.00,,CLR,0.00,VWS V14.01,2013-03-13 08:15:00,
2013-03-13 03:20:00,25.1,16.7,30.36,NW,315,0.4,0.4,70,0.00,,CLR,0.00,VWS V14.01,2013-03-13 08:20:00,
2013-03-13 03:25:00,25.0,16.6,30.36,NNW,338,0.0,1.1,70,0.00,,CLR,0.00,VWS V14.01,2013-03-13 08:25:00,
2013-03-13 03:30:00,24.8,16.4,30.36,NW,315,0.9,1.3,70,0.00,,CLR,0.00,VWS V14.01,2013-03-13 08:30:00,
2013-03-13 03:35:00,24.8,16.8,30.36,NNW,338,0.0,0.9,71,0.00,,CLR,0.00,VWS V14.01,2013-03-13 08:35:00,
2013-03-13 03:40:00,24.6,16.5,30.36,NW,315,0.9,0.9,71,0.00,,CLR,0.00,VWS V14.01,2013-03-13 08:40:00,
2013-03-13 03:45:00,24.6,16.5,30.36,NNW,338,0.4,0.9,71,0.00,,CLR,0.00,VWS V14.01,2013-03-13 08:45:00,
2013-03-13 03:50:00,24.6,16.5,30.36,NNW,338,0.2,1.1,71,0.00,,CLR,0.00,VWS V14.01,2013-03-13 08:50:00,
2013-03-13 03:55:00,24.4,16.4,30.36,NNE,22,0.0,0.2,71,0.00,,CLR,0.00,VWS V14.01,2013-03-13 08:55:00,
2013-03-13 04:02:00,24.4,16.7,30.36,North,0,0.0,0.7,72,0.00,,CLR,0.00,VWS V14.01,2013-03-13 09:02:00,
2013-03-13 04:10:00,24.4,16.7,30.36,NNW,338,0.0,0.2,72,0.00,,CLR,0.00,VWS V14.01,2013-03-13 09:10:00,
2013-03-13 04:15:00,24.4,16.7,30.36,NNW,338,0.0,0.4,72,0.00,,CLR,0.00,VWS V14.01,2013-03-13 09:15:00,
2013-03-13 04:20:00,24.4,16.7,30.36,NNW,338,0.0,0.4,72,0.00,,CLR,0.00,VWS V14.01,2013-03-13 09:20:00,
2013-03-13 04:25:00,24.4,16.7,30.37,NNW,338,0.0,1.1,72,0.00,,CLR,0.00,VWS V14.01,2013-03-13 09:25:00,
2013-03-13 04:30:00,24.2,16.5,30.37,North,0,0.0,0.0,72,0.00,,CLR,0.00,VWS V14.01,2013-03-13 09:30:00,
2013-03-13 04:35:00,24.2,16.5,30.37,NNW,338,0.0,0.4,72,0.00,,CLR,0.00,VWS V14.01,2013-03-13 09:35:00,
2013-03-13 04:40:00,24.2,16.5,30.37,NNW,338,0.0,0.0,72,0.00,,CLR,0.00,VWS V14.01,2013-03-13 09:40:00,
2013-03-13 04:45:00,24.1,16.4,30.37,NW,315,0.4,0.4,72,0.00,,CLR,0.00,VWS V14.01,2013-03-13 09:45:00,
2013-03-13 04:50:00,24.1,16.4,30.37,NNW,338,0.0,0.4,72,0.00,,CLR,0.00,VWS V14.01,2013-03-13 09:50:00,
2013-03-13 04:55:00,23.9,16.2,30.37,NNW,338,0.2,0.2,72,0.00,,CLR,0.00,VWS V14.01,2013-03-13 09:55:00,
2013-03-13 05:02:00,23.9,16.2,30.38,NNW,338,0.0,0.2,72,0.00,,CLR,0.00,VWS V14.01,2013-03-13 10:02:00,
2013-03-13 05:10:00,23.5,15.8,30.38,NNW,338,0.0,0.2,72,0.00,,CLR,0.00,VWS V14.01,2013-03-13 10:10:00,
2013-03-13 05:15:00,23.5,15.8,30.38,NNW,338,0.0,0.2,72,0.00,,CLR,0.00,VWS V14.01,2013-03-13 10:15:00,
2013-03-13 05:20:00,23.3,15.6,30.38,NW,315,0.2,0.7,72,0.00,,CLR,0.00,VWS V14.01,2013-03-13 10:20:00,
2013-03-13 05:25:00,23.2,15.5,30.38,North,0,0.0,0.9,72,0.00,,CLR,0.00,VWS V14.01,2013-03-13 10:25:00,
2013-03-13 05:30:00,23.2,15.5,30.38,North,0,0.0,0.4,72,0.00,,CLR,0.00,VWS V14.01,2013-03-13 10:30:00,
2013-03-13 05:35:00,23.2,15.8,30.38,NNW,338,0.0,0.4,73,0.00,,CLR,0.00,VWS V14.01,2013-03-13 10:35:00,
2013-03-13 05:40:00,23.0,15.6,30.38,NNW,338,0.2,2.0,73,0.00,,CLR,0.00,VWS V14.01,2013-03-13 10:40:00,
2013-03-13 05:45:00,23.0,15.6,30.39,North,0,0.0,0.7,73,0.00,,CLR,0.00,VWS V14.01,2013-03-13 10:45:00,
2013-03-13 05:50:00,23.0,15.6,30.39,NE,45,0.0,0.2,73,0.00,,CLR,0.00,VWS V14.01,2013-03-13 10:50:00,
2013-03-13 05:55:00,23.0,16.0,30.39,NNW,338,0.2,0.7,74,0.00,,CLR,0.00,VWS V14.01,2013-03-13 10:55:00,
2013-03-13 06:02:00,22.8,15.8,30.39,North,0,0.0,0.0,74,0.00,,CLR,0.00,VWS V14.01,2013-03-13 11:02:00,
2013-03-13 06:10:00,22.8,15.8,30.39,NNW,338,0.0,0.0,74,0.00,,CLR,0.00,VWS V14.01,2013-03-13 11:10:00,
2013-03-13 06:15:00,22.8,15.8,30.39,North,0,0.2,0.4,74,0.00,,CLR,0.00,VWS V14.01,2013-03-13 11:15:00,
2013-03-13 06:20:00,22.8,15.8,30.39,NE,45,0.4,0.4,74,0.00,,CLR,0.00,VWS V14.01,2013-03-13 11:20:00,
2013-03-13 06:25:00,22.8,15.8,30.39,North,0,0.0,0.4,74,0.00,,CLR,0.00,VWS V14.01,2013-03-13 11:25:00,
2013-03-13 06:30:00,22.8,15.8,30.39,NNW,338,0.0,0.7,74,0.00,,CLR,0.00,VWS V14.01,2013-03-13 11:30:00,
2013-03-13 06:35:00,22.6,15.9,30.39,NNW,338,0.0,0.4,75,0.00,,CLR,0.00,VWS V14.01,2013-03-13 11:35:00,
2013-03-13 06:40:00,22.6,15.9,30.40,North,0,0.0,0.0,75,0.00,,CLR,0.00,VWS V14.01,2013-03-13 11:40:00,
2013-03-13 06:45:00,22.6,15.9,30.39,North,0,0.2,0.2,75,0.00,,CLR,0.00,VWS V14.01,2013-03-13 11:45:00,
2013-03-13 06:52:00,22.4,15.7,30.40,NE,45,0.0,0.2,75,0.00,,CLR,0.00,VWS V14.01,2013-03-13 11:52:00,
2013-03-13 07:00:00,22.4,15.7,30.40,NNE,22,0.4,0.7,75,0.00,,CLR,0.00,VWS V14.01,2013-03-13 12:00:00,
2013-03-13 07:05:00,22.4,15.7,30.39,North,0,0.2,0.4,75,0.00,,CLR,0.00,VWS V14.01,2013-03-13 12:05:00,
2013-03-13 07:10:00,22.4,15.7,30.39,NNE,22,0.0,0.7,75,0.00,,CLR,0.00,VWS V14.01,2013-03-13 12:10:00,
2013-03-13 07:15:00,22.6,15.9,30.40,NE,45,0.0,0.0,75,0.00,,CLR,0.00,VWS V14.01,2013-03-13 12:15:00,
2013-03-13 07:20:00,22.6,15.9,30.40,North,0,0.0,0.7,75,0.00,,CLR,0.00,VWS V14.01,2013-03-13 12:20:00,
2013-03-13 07:30:00,22.4,15.7,30.41,West,270,0.4,0.4,75,0.00,,CLR,0.00,VWS V14.01,2013-03-13 12:30:00,
2013-03-13 07:35:00,22.4,15.7,30.40,North,0,0.0,0.4,75,0.00,,CLR,0.00,VWS V14.01,2013-03-13 12:35:00,
2013-03-13 07:40:00,22.4,15.7,30.41,NW,315,0.0,0.2,75,0.00,,CLR,0.00,VWS V14.01,2013-03-13 12:40:00,
2013-03-13 07:45:00,22.3,15.6,30.41,NNW,338,0.0,0.0,75,0.00,,CLR,0.00,VWS V14.01,2013-03-13 12:45:00,
2013-03-13 07:50:00,22.1,15.7,30.41,North,0,0.0,0.0,76,0.00,,CLR,0.00,VWS V14.01,2013-03-13 12:50:00,
2013-03-13 07:55:00,22.3,15.9,30.41,North,0,0.0,0.4,76,0.00,,CLR,0.00,VWS V14.01,2013-03-13 12:55:00,
2013-03-13 08:02:00,22.3,15.9,30.41,NW,315,0.7,0.7,76,0.00,,CLR,0.00,VWS V14.01,2013-03-13 13:02:00,
2013-03-13 08:10:00,22.3,15.9,30.42,NNE,22,0.0,0.0,76,0.00,,CLR,0.00,VWS V14.01,2013-03-13 13:10:00,
2013-03-13 08:20:00,22.4,16.0,30.42,NNW,338,0.9,0.9,76,0.00,,CLR,0.00,VWS V14.01,2013-03-13 13:20:00,
2013-03-13 08:30:00,23.0,16.6,30.42,NE,45,0.0,0.2,76,0.00,,CLR,0.00,VWS V14.01,2013-03-13 13:30:00,
2013-03-13 08:35:00,23.2,16.8,30.42,NNE,22,0.0,0.2,76,0.00,,CLR,0.00,VWS V14.01,2013-03-13 13:35:00,
2013-03-13 08:40:00,23.3,16.9,30.43,NNW,338,0.2,0.9,76,0.00,,CLR,0.00,VWS V14.01,2013-03-13 13:40:00,
2013-03-13 08:45:00,23.9,17.5,30.43,NNW,338,0.7,0.7,76,0.00,,CLR,0.00,VWS V14.01,2013-03-13 13:45:00,
2013-03-13 08:50:00,24.6,17.8,30.44,NE,45,0.0,1.3,75,0.00,,CLR,0.00,VWS V14.01,2013-03-13 13:50:00,
2013-03-13 08:55:00,25.3,18.5,30.44,North,0,0.0,0.0,75,0.00,,CLR,0.00,VWS V14.01,2013-03-13 13:55:00,
2013-03-13 09:02:00,26.4,19.9,30.44,NW,315,0.4,0.4,76,0.00,,CLR,0.00,VWS V14.01,2013-03-13 14:02:00,
2013-03-13 09:10:00,27.1,19.9,30.44,NW,315,0.2,1.8,74,0.00,,CLR,0.00,VWS V14.01,2013-03-13 14:10:00,
2013-03-13 09:15:00,27.5,20.0,30.44,NNE,22,0.0,1.1,73,0.00,,CLR,0.00,VWS V14.01,2013-03-13 14:15:00,
2013-03-13 09:20:00,27.8,20.3,30.44,ENE,68,0.4,1.6,73,0.00,,CLR,0.00,VWS V14.01,2013-03-13 14:20:00,
2013-03-13 09:30:00,28.2,20.4,30.45,North,0,1.1,1.3,72,0.00,,CLR,0.00,VWS V14.01,2013-03-13 14:30:00,
2013-03-13 09:35:00,28.7,20.8,30.45,WNW,292,2.0,2.5,72,0.00,,CLR,0.00,VWS V14.01,2013-03-13 14:35:00,
2013-03-13 09:40:00,29.1,20.9,30.46,SE,135,0.9,2.0,71,0.00,,CLR,0.00,VWS V14.01,2013-03-13 14:40:00,
2013-03-13 09:45:00,29.5,20.9,30.46,NNE,22,0.2,0.9,70,0.00,,CLR,0.00,VWS V14.01,2013-03-13 14:45:00,
2013-03-13 09:50:00,29.8,21.2,30.46,NNW,338,0.0,0.9,70,0.00,,CLR,0.00,VWS V14.01,2013-03-13 14:50:00,
2013-03-13 09:55:00,30.2,21.6,30.45,ENE,68,0.0,0.9,70,0.00,,CLR,0.00,VWS V14.01,2013-03-13 14:55:00,
2013-03-13 10:03:00,30.5,21.6,30.46,NNE,22,0.7,0.9,69,0.00,,CLR,0.00,VWS V14.01,2013-03-13 15:03:00,
2013-03-13 10:10:00,31.1,22.1,30.46,WSW,248,0.4,1.6,69,0.00,,CLR,0.00,VWS V14.01,2013-03-13 15:10:00,
2013-03-13 10:15:00,31.6,22.6,30.46,North,0,0.7,0.9,69,0.00,,CLR,0.00,VWS V14.01,2013-03-13 15:15:00,
2013-03-13 10:21:00,31.8,22.5,30.46,WNW,292,1.8,3.4,68,0.00,,CLR,0.00,VWS V14.01,2013-03-13 15:21:00,
2013-03-13 10:30:00,32.3,22.6,30.47,ESE,112,0.9,1.3,67,0.00,,CLR,0.00,VWS V14.01,2013-03-13 15:30:00,
2013-03-13 10:35:00,32.5,22.8,30.47,NW,315,0.2,2.5,67,0.00,,CLR,0.00,VWS V14.01,2013-03-13 15:35:00,
2013-03-13 10:40:00,32.7,23.0,30.47,ENE,68,0.4,1.6,67,0.00,,CLR,0.00,VWS V14.01,2013-03-13 15:40:00,
2013-03-13 10:45:00,33.4,23.6,30.47,NNE,22,0.2,0.9,67,0.00,,CLR,0.00,VWS V14.01,2013-03-13 15:45:00,
2013-03-13 10:50:00,33.8,23.7,30.47,NW,315,0.7,2.2,66,0.00,,CLR,0.00,VWS V14.01,2013-03-13 15:50:00,
2013-03-13 10:55:00,34.0,23.9,30.47,NW,315,3.4,3.4,66,0.00,,CLR,0.00,VWS V14.01,2013-03-13 15:55:00,
2013-03-13 11:03:00,34.3,23.0,30.47,ESE,112,1.8,2.9,63,0.00,,CLR,0.00,VWS V14.01,2013-03-13 16:03:00,
2013-03-13 11:10:00,33.6,22.7,30.47,NE,45,0.7,1.8,64,0.00,,CLR,0.00,VWS V14.01,2013-03-13 16:10:00,
2013-03-13 11:15:00,34.0,23.1,30.47,NNE,22,1.1,1.1,64,0.00,,CLR,0.00,VWS V14.01,2013-03-13 16:15:00,
2013-03-13 11:21:00,34.5,22.8,30.48,NE,45,0.2,1.1,62,0.00,,CLR,0.00,VWS V14.01,2013-03-13 16:21:00,
2013-03-13 11:30:00,35.2,23.9,30.48,NNE,22,1.1,3.1,63,0.00,,CLR,0.00,VWS V14.01,2013-03-13 16:30:00,
2013-03-13 11:35:00,36.1,24.7,30.48,WSW,248,1.3,2.0,63,0.00,,CLR,0.00,VWS V14.01,2013-03-13 16:35:00,
2013-03-13 11:40:00,36.5,25.1,30.48,SW,225,1.3,2.7,63,0.00,,CLR,0.00,VWS V14.01,2013-03-13 16:40:00,
2013-03-13 11:45:00,36.7,25.3,30.48,NE,45,0.7,1.3,63,0.00,,CLR,0.00,VWS V14.01,2013-03-13 16:45:00,
2013-03-13 11:50:00,37.2,25.4,30.48,NNE,22,1.1,1.8,62,0.00,,CLR,0.00,VWS V14.01,2013-03-13 16:50:00,
2013-03-13 11:55:00,37.4,25.6,30.48,East,90,0.4,1.1,62,0.00,,CLR,0.00,VWS V14.01,2013-03-13 16:55:00,
2013-03-13 12:03:00,37.6,25.0,30.48,SE,135,4.3,4.3,60,0.00,,CLR,0.00,VWS V14.01,2013-03-13 17:03:00,
2013-03-13 12:10:00,37.2,25.0,30.48,West,270,0.4,2.2,61,0.00,,CLR,0.00,VWS V14.01,2013-03-13 17:10:00,
2013-03-13 12:15:00,37.6,25.0,30.48,NE,45,0.9,1.1,60,0.00,,CLR,0.00,VWS V14.01,2013-03-13 17:15:00,
2013-03-13 12:21:00,37.9,25.3,30.48,NNW,338,0.4,3.1,60,0.00,,CLR,0.00,VWS V14.01,2013-03-13 17:21:00,
2013-03-13 12:30:00,38.6,25.9,30.48,NNW,338,0.4,2.9,60,0.00,,CLR,0.00,VWS V14.01,2013-03-13 17:30:00,
2013-03-13 12:35:00,39.0,25.9,30.48,NNW,338,0.9,1.8,59,0.00,,CLR,0.00,VWS V14.01,2013-03-13 17:35:00,
2013-03-13 12:40:00,39.0,25.1,30.48,North,0,0.0,1.3,57,0.00,,CLR,0.00,VWS V14.01,2013-03-13 17:40:00,
2013-03-13 12:45:00,39.0,25.5,30.47,NW,315,3.4,3.4,58,0.00,,CLR,0.00,VWS V14.01,2013-03-13 17:45:00,
2013-03-13 12:50:00,39.7,26.1,30.47,NNE,22,1.1,3.4,58,0.00,,CLR,0.00,VWS V14.01,2013-03-13 17:50:00,
2013-03-13 12:55:00,40.4,26.8,30.47,NW,315,0.4,1.1,58,0.00,,CLR,0.00,VWS V14.01,2013-03-13 17:55:00,
2013-03-13 13:03:00,40.4,26.4,30.48,North,0,0.4,2.0,57,0.00,,CLR,0.00,VWS V14.01,2013-03-13 18:03:00,
2013-03-13 13:10:00,40.8,26.3,30.47,NE,45,0.9,1.8,56,0.00,,CLR,0.00,VWS V14.01,2013-03-13 18:10:00,
2013-03-13 13:15:00,41.0,26.5,30.47,North,0,0.7,1.8,56,0.00,,BKN110,0.00,VWS V14.01,2013-03-13 18:15:00,
2013-03-13 13:21:00,41.5,27.0,30.47,NE,45,0.0,1.1,56,0.00,,BKN110,0.00,VWS V14.01,2013-03-13 18:21:00,
2013-03-13 13:30:00,41.9,26.9,30.47,SSW,202,0.9,3.4,55,0.00,,BKN110,0.00,VWS V14.01,2013-03-13 18:30:00,
2013-03-13 13:35:00,41.7,26.3,30.46,NE,45,0.7,2.2,54,0.00,,BKN110,0.00,VWS V14.01,2013-03-13 18:35:00,
2013-03-13 13:40:00,41.7,26.7,30.46,ENE,68,1.1,1.6,55,0.00,,BKN110,0.00,VWS V14.01,2013-03-13 18:40:00,
2013-03-13 13:45:00,42.2,26.3,30.46,ESE,112,0.4,1.1,53,0.00,,BKN110,0.00,VWS V14.01,2013-03-13 18:45:00,
2013-03-13 13:50:00,41.2,25.4,30.46,ESE,112,0.4,2.2,53,0.00,,BKN110,0.00,VWS V14.01,2013-03-13 18:50:00,
2013-03-13 13:55:00,40.3,24.5,30.46,North,0,1.1,1.8,53,0.00,,BKN110,0.00,VWS V14.01,2013-03-13 18:55:00,
2013-03-13 14:03:00,40.4,24.6,30.45,NW,315,1.3,1.3,53,0.00,,BKN110,0.00,VWS V14.01,2013-03-13 19:03:00,
2013-03-13 14:10:00,41.0,25.2,30.45,NE,45,0.2,3.4,53,0.00,,BKN110,0.00,VWS V14.01,2013-03-13 19:10:00,
2013-03-13 14:15:00,40.8,25.0,30.44,NNE,22,1.1,1.1,53,0.00,,OVC100,0.00,VWS V14.01,2013-03-13 19:15:00,
2013-03-13 14:20:00,40.4,24.6,30.44,North,0,0.2,1.1,53,0.00,,OVC100,0.00,VWS V14.01,2013-03-13 19:20:00,
2013-03-13 14:30:00,40.1,24.4,30.44,NW,315,0.0,2.2,53,0.00,,OVC100,0.00,VWS V14.01,2013-03-13 19:30:00,
2013-03-13 14:35:00,40.1,24.4,30.44,South,180,0.7,1.1,53,0.00,,OVC100,0.00,VWS V14.01,2013-03-13 19:35:00,
2013-03-13 14:40:00,40.1,24.4,30.43,SE,135,1.3,1.3,53,0.00,,OVC100,0.00,VWS V14.01,2013-03-13 19:40:00,
2013-03-13 14:45:00,40.4,24.6,30.43,NW,315,1.3,1.3,53,0.00,,OVC100,0.00,VWS V14.01,2013-03-13 19:45:00,
2013-03-13 14:50:00,40.8,25.0,30.42,North,0,0.0,1.3,53,0.00,,OVC100,0.00,VWS V14.01,2013-03-13 19:50:00,
2013-03-13 14:55:00,41.2,25.4,30.42,ENE,68,0.0,2.0,53,0.00,,OVC100,0.00,VWS V14.01,2013-03-13 19:55:00,
2013-03-13 15:03:00,41.0,24.7,30.41,NE,45,1.3,1.3,52,0.00,,OVC100,0.00,VWS V14.01,2013-03-13 20:03:00,
2013-03-13 15:10:00,40.4,24.2,30.41,SSW,202,0.4,2.5,52,0.00,,OVC100,0.00,VWS V14.01,2013-03-13 20:10:00,
2013-03-13 15:15:00,40.4,24.6,30.41,East,90,1.1,1.3,53,0.00,,OVC090,0.00,VWS V14.01,2013-03-13 20:15:00,
2013-03-13 15:20:00,41.0,24.7,30.41,SE,135,3.1,3.8,52,0.00,,OVC090,0.00,VWS V14.01,2013-03-13 20:20:00,
2013-03-13 15:30:00,40.8,24.1,30.40,SE,135,1.1,2.5,51,0.00,,OVC090,0.00,VWS V14.01,2013-03-13 20:30:00,
2013-03-13 15:35:00,41.2,24.9,30.40,WNW,292,2.0,2.5,52,0.00,,OVC090,0.00,VWS V14.01,2013-03-13 20:35:00,
2013-03-13 15:40:00,41.5,25.2,30.40,WNW,292,1.8,4.0,52,0.00,,OVC090,0.00,VWS V14.01,2013-03-13 20:40:00,
2013-03-13 15:45:00,41.9,25.6,30.40,NNW,338,1.1,2.5,52,0.00,,OVC090,0.00,VWS V14.01,2013-03-13 20:45:00,
2013-03-13 15:50:00,42.4,25.6,30.40,SW,225,0.7,2.9,51,0.00,,OVC090,0.00,VWS V14.01,2013-03-13 20:50:00,
2013-03-13 15:55:00,42.6,25.8,30.39,NW,315,0.2,1.8,51,0.00,,OVC090,0.00,VWS V14.01,2013-03-13 20:55:00,
2013-03-13 16:03:00,42.8,25.5,30.39,NE,45,1.3,2.9,50,0.00,,OVC090,0.00,VWS V14.01,2013-03-13 21:03:00,
2013-03-13 16:10:00,42.6,24.8,30.39,West,270,0.4,2.5,49,0.00,,OVC090,0.00,VWS V14.01,2013-03-13 21:10:00,
2013-03-13 16:15:00,42.6,24.8,30.39,South,180,1.3,2.5,49,0.00,,SCT100,0.00,VWS V14.01,2013-03-13 21:15:00,
2013-03-13 16:20:00,42.4,24.6,30.39,NW,315,1.8,2.0,49,0.00,,SCT100,0.00,VWS V14.01,2013-03-13 21:20:00,
2013-03-13 16:30:00,42.6,24.3,30.38,South,180,2.0,3.1,48,0.00,,SCT100,0.00,VWS V14.01,2013-03-13 21:30:00,
2013-03-13 16:35:00,42.6,24.3,30.38,NW,315,0.0,2.7,48,0.00,,SCT100,0.00,VWS V14.01,2013-03-13 21:35:00,
2013-03-13 16:40:00,42.6,24.3,30.38,West,270,0.9,3.4,48,0.00,,SCT100,0.00,VWS V14.01,2013-03-13 21:40:00,
2013-03-13 16:45:00,43.0,24.7,30.38,ESE,112,2.7,2.7,48,0.00,,SCT100,0.00,VWS V14.01,2013-03-13 21:45:00,
2013-03-13 16:50:00,43.0,24.2,30.38,SE,135,2.0,4.0,47,0.00,,SCT100,0.00,VWS V14.01,2013-03-13 21:50:00,
2013-03-13 16:55:00,42.8,24.0,30.38,SE,135,1.8,3.4,47,0.00,,SCT100,0.00,VWS V14.01,2013-03-13 21:55:00,
2013-03-13 17:03:00,42.6,23.8,30.37,SE,135,1.1,2.5,47,0.00,,SCT100,0.00,VWS V14.01,2013-03-13 22:03:00,
2013-03-13 17:10:00,42.4,23.1,30.37,SE,135,0.4,4.0,46,0.00,,SCT100,0.00,VWS V14.01,2013-03-13 22:10:00,
2013-03-13 17:15:00,42.4,23.1,30.37,SSW,202,0.0,1.8,46,0.00,,BKN070,0.00,VWS V14.01,2013-03-13 22:15:00,
2013-03-13 17:20:00,42.6,23.3,30.37,SW,225,1.8,2.0,46,0.00,,BKN070,0.00,VWS V14.01,2013-03-13 22:20:00,
2013-03-13 17:30:00,43.0,23.6,30.37,SSE,158,2.2,2.2,46,0.00,,BKN070,0.00,VWS V14.01,2013-03-13 22:30:00,
2013-03-13 17:35:00,43.0,23.6,30.37,ESE,112,2.2,2.2,46,0.00,,BKN070,0.00,VWS V14.01,2013-03-13 22:35:00,
2013-03-13 17:40:00,42.8,23.5,30.37,South,180,0.4,2.2,46,0.00,,BKN070,0.00,VWS V14.01,2013-03-13 22:40:00,
2013-03-13 17:45:00,42.6,23.3,30.37,South,180,1.1,2.9,46,0.00,,BKN070,0.00,VWS V14.01,2013-03-13 22:45:00,
2013-03-13 17:50:00,42.6,23.3,30.36,WSW,248,1.6,2.0,46,0.00,,BKN070,0.00,VWS V14.01,2013-03-13 22:50:00,
2013-03-13 17:55:00,42.6,23.3,30.36,SE,135,1.8,2.9,46,0.00,,BKN070,0.00,VWS V14.01,2013-03-13 22:55:00,
2013-03-13 18:01:00,42.6,22.8,30.36,SSE,158,1.3,2.5,45,0.00,,BKN070,0.00,VWS V14.01,2013-03-13 23:01:00,
2013-03-13 18:10:00,42.8,23.5,30.36,WSW,248,1.3,4.5,46,0.00,,BKN070,0.00,VWS V14.01,2013-03-13 23:10:00,
2013-03-13 18:15:00,42.6,22.8,30.36,SW,225,1.6,4.5,45,0.00,,FEW095,0.00,VWS V14.01,2013-03-13 23:15:00,
2013-03-13 18:20:00,42.6,22.8,30.36,SSE,158,2.0,3.4,45,0.00,,FEW095,0.00,VWS V14.01,2013-03-13 23:20:00,
2013-03-13 18:25:00,42.6,22.8,30.37,SE,135,1.8,2.0,45,0.00,,FEW095,0.00,VWS V14.01,2013-03-13 23:25:00,
2013-03-13 18:30:00,42.6,22.8,30.37,South,180,0.9,1.8,45,0.00,,FEW095,0.00,VWS V14.01,2013-03-13 23:30:00,
2013-03-13 18:35:00,42.6,22.8,30.37,WSW,248,1.8,3.1,45,0.00,,FEW095,0.00,VWS V14.01,2013-03-13 23:35:00,
2013-03-13 18:40:00,42.6,23.3,30.37,SE,135,1.8,3.4,46,0.00,,FEW095,0.00,VWS V14.01,2013-03-13 23:40:00,
2013-03-13 18:45:00,42.4,23.1,30.37,SW,225,1.1,2.5,46,0.00,,FEW095,0.00,VWS V14.01,2013-03-13 23:45:00,
2013-03-13 18:50:00,42.2,23.4,30.37,SE,135,1.1,2.5,47,0.00,,FEW095,0.00,VWS V14.01,2013-03-13 23:50:00,
2013-03-13 18:55:00,42.1,23.3,30.37,SE,135,1.1,2.0,47,0.00,,FEW095,0.00,VWS V14.01,2013-03-13 23:55:00,
2013-03-13 19:04:00,41.9,23.2,30.37,South,180,0.2,4.0,47,0.00,,FEW095,0.00,VWS V14.01,2013-03-14 00:04:00,
2013-03-13 19:10:00,41.5,23.3,30.37,South,180,1.6,2.5,48,0.00,,FEW095,0.00,VWS V14.01,2013-03-14 00:10:00,
2013-03-13 19:15:00,41.2,23.0,30.36,SW,225,1.1,2.0,48,0.00,,CLR,0.00,VWS V14.01,2013-03-14 00:15:00,
2013-03-13 19:20:00,41.0,22.8,30.36,South,180,0.0,2.5,48,0.00,,CLR,0.00,VWS V14.01,2013-03-14 00:20:00,
2013-03-13 19:30:00,40.6,22.5,30.37,SSE,158,0.9,0.9,48,0.00,,CLR,0.00,VWS V14.01,2013-03-14 00:30:00,
2013-03-13 19:35:00,40.4,22.3,30.37,SW,225,0.9,1.1,48,0.00,,CLR,0.00,VWS V14.01,2013-03-14 00:35:00,
2013-03-13 19:40:00,40.1,22.0,30.36,SW,225,0.0,0.9,48,0.00,,CLR,0.00,VWS V14.01,2013-03-14 00:40:00,
2013-03-13 19:45:00,39.7,21.6,30.35,SSE,158,0.0,0.0,48,0.00,,CLR,0.00,VWS V14.01,2013-03-14 00:45:00,
2013-03-13 19:50:00,39.4,21.8,30.35,SSE,158,0.0,0.0,49,0.00,,CLR,0.00,VWS V14.01,2013-03-14 00:50:00,
2013-03-13 19:55:00,39.0,21.5,30.35,SSE,158,0.0,0.0,49,0.00,,CLR,0.00,VWS V14.01,2013-03-14 00:55:00,
2013-03-13 20:04:00,38.3,20.8,30.36,SSE,158,0.0,0.0,49,0.00,,CLR,0.00,VWS V14.01,2013-03-14 01:04:00,
2013-03-13 20:10:00,37.7,20.3,30.36,SSE,158,0.0,0.0,49,0.00,,CLR,0.00,VWS V14.01,2013-03-14 01:10:00,
2013-03-13 20:15:00,37.4,20.0,30.36,SSE,158,0.0,0.0,49,0.00,,CLR,0.00,VWS V14.01,2013-03-14 01:15:00,
2013-03-13 20:20:00,36.8,19.9,30.36,SSE,158,0.0,0.0,50,0.00,,CLR,0.00,VWS V14.01,2013-03-14 01:20:00,
2013-03-13 20:30:00,36.1,19.7,30.36,SSE,158,0.0,0.0,51,0.00,,CLR,0.00,VWS V14.01,2013-03-14 01:30:00,
2013-03-13 20:35:00,35.8,19.5,30.36,SE,135,0.0,0.0,51,0.00,,CLR,0.00,VWS V14.01,2013-03-14 01:35:00,
2013-03-13 20:40:00,35.4,19.1,30.35,SE,135,0.0,0.0,51,0.00,,CLR,0.00,VWS V14.01,2013-03-14 01:40:00,
2013-03-13 20:45:00,35.2,19.4,30.35,SE,135,0.0,0.0,52,0.00,,CLR,0.00,VWS V14.01,2013-03-14 01:45:00,
2013-03-13 20:50:00,35.0,19.2,30.35,SE,135,0.0,0.0,52,0.00,,CLR,0.00,VWS V14.01,2013-03-14 01:50:00,
2013-03-13 20:55:00,34.7,19.3,30.35,SE,135,0.0,0.0,53,0.00,,CLR,0.00,VWS V14.01,2013-03-14 01:55:00,
2013-03-13 21:04:00,34.1,18.8,30.35,SE,135,0.0,0.0,53,0.00,,CLR,0.00,VWS V14.01,2013-03-14 02:04:00,
2013-03-13 21:10:00,34.0,19.1,30.35,SE,135,0.0,0.0,54,0.00,,CLR,0.00,VWS V14.01,2013-03-14 02:10:00,
2013-03-13 21:15:00,33.6,18.7,30.35,SE,135,0.0,0.0,54,0.00,,CLR,0.00,VWS V14.01,2013-03-14 02:15:00,
2013-03-13 21:20:00,33.2,18.8,30.35,NNW,338,0.0,0.0,55,0.00,,CLR,0.00,VWS V14.01,2013-03-14 02:20:00,
2013-03-13 21:30:00,32.9,18.9,30.35,NNE,22,0.0,0.0,56,0.00,,CLR,0.00,VWS V14.01,2013-03-14 02:30:00,
2013-03-13 21:35:00,32.7,18.8,30.35,NNE,22,0.0,0.0,56,0.00,,CLR,0.00,VWS V14.01,2013-03-14 02:35:00,
2013-03-13 21:40:00,32.5,18.6,30.35,NNE,22,0.0,0.0,56,0.00,,CLR,0.00,VWS V14.01,2013-03-14 02:40:00,
2013-03-13 21:45:00,32.5,18.6,30.35,NNE,22,0.0,0.0,56,0.00,,CLR,0.00,VWS V14.01,2013-03-14 02:45:00,
2013-03-13 21:50:00,32.2,18.3,30.35,NNE,22,0.0,0.0,56,0.00,,CLR,0.00,VWS V14.01,2013-03-14 02:50:00,
2013-03-13 21:55:00,32.0,18.5,30.35,NW,315,0.0,0.0,57,0.00,,CLR,0.00,VWS V14.01,2013-03-14 02:55:00,
2013-03-13 22:04:00,31.8,18.7,30.35,East,90,0.0,0.2,58,0.00,,CLR,0.00,VWS V14.01,2013-03-14 03:04:00,
2013-03-13 22:10:00,31.8,18.7,30.34,ESE,112,1.1,1.1,58,0.00,,CLR,0.00,VWS V14.01,2013-03-14 03:10:00,
2013-03-13 22:15:00,31.8,19.1,30.34,SE,135,0.9,1.1,59,0.00,,CLR,0.00,VWS V14.01,2013-03-14 03:15:00,
2013-03-13 22:21:00,31.6,18.9,30.34,SE,135,0.4,1.1,59,0.00,,CLR,0.00,VWS V14.01,2013-03-14 03:21:00,
2013-03-13 22:30:00,32.0,20.1,30.34,ESE,112,0.7,1.6,61,0.00,,CLR,0.00,VWS V14.01,2013-03-14 03:30:00,
2013-03-13 22:35:00,32.5,20.6,30.34,SE,135,0.7,2.2,61,0.00,,CLR,0.00,VWS V14.01,2013-03-14 03:35:00,
2013-03-13 22:40:00,33.1,21.1,30.34,SE,135,0.7,1.1,61,0.00,,CLR,0.00,VWS V14.01,2013-03-14 03:40:00,
2013-03-13 22:45:00,33.2,21.2,30.34,SE,135,0.4,1.1,61,0.00,,CLR,0.00,VWS V14.01,2013-03-14 03:45:00,
2013-03-13 22:50:00,33.4,21.0,30.34,SE,135,0.0,1.8,60,0.00,,CLR,0.00,VWS V14.01,2013-03-14 03:50:00,
2013-03-13 22:55:00,33.6,21.6,30.34,SE,135,1.8,1.8,61,0.00,,CLR,0.00,VWS V14.01,2013-03-14 03:55:00,
2013-03-13 23:00:00,33.8,21.8,30.34,SE,135,2.0,2.2,61,0.00,,CLR,0.00,VWS V14.01,2013-03-14 04:00:00,
2013-03-13 23:04:00,33.8,21.8,30.34,SE,135,0.7,2.0,61,0.00,,CLR,0.00,VWS V14.01,2013-03-14 04:04:00,
2013-03-13 23:10:00,34.0,22.0,30.33,SSE,158,1.1,2.2,61,0.00,,CLR,0.00,VWS V14.01,2013-03-14 04:10:00,
2013-03-13 23:15:00,34.1,22.1,30.33,SE,135,2.0,2.5,61,0.00,,CLR,0.00,VWS V14.01,2013-03-14 04:15:00,
2013-03-13 23:20:00,34.1,22.1,30.33,SE,135,1.6,2.0,61,0.00,,CLR,0.00,VWS V14.01,2013-03-14 04:20:00,
2013-03-13 23:25:00,34.1,22.1,30.33,SE,135,1.1,1.6,61,0.00,,CLR,0.00,VWS V14.01,2013-03-14 04:25:00,
2013-03-13 23:30:00,34.1,22.1,30.33,ESE,112,1.6,1.6,61,0.00,,CLR,0.00,VWS V14.01,2013-03-14 04:30:00,
2013-03-13 23:35:00,34.1,22.1,30.33,SE,135,1.3,2.2,61,0.00,,CLR,0.00,VWS V14.01,2013-03-14 04:35:00,
2013-03-13 23:40:00,34.1,22.1,30.33,SSE,158,1.8,2.5,61,0.00,,CLR,0.00,VWS V14.01,2013-03-14 04:40:00,
2013-03-13 23:45:00,34.1,22.1,30.33,ESE,112,3.4,3.4,61,0.00,,CLR,0.00,VWS V14.01,2013-03-14 04:45:00,
2013-03-13 23:50:00,34.1,22.1,30.33,SE,135,1.3,3.4,61,0.00,,CLR,0.00,VWS V14.01,2013-03-14 04:50:00,
2013-03-13 23:55:00,34.0,22.0,30.32,SE,135,1.1,2.0,61,0.00,,CLR,0.00,VWS V14.01,2013-03-14 04:55:00,